Map

Track Data

SID SEASON NUMBER BASIN SUBBASIN NAME ISO_TIME NATURE LAT LON WMO_WIND WMO_PRES WMO_AGENCY TRACK_TYPE DIST2LAND LANDFALL IFLAG USA_AGENCY USA_ATCF_ID USA_LAT USA_LON USA_RECORD USA_STATUS USA_WIND USA_PRES USA_SSHS USA_R34_NE USA_R34_SE USA_R34_SW USA_R34_NW USA_R50_NE USA_R50_SE USA_R50_SW USA_R50_NW USA_R64_NE USA_R64_SE USA_R64_SW USA_R64_NW USA_POCI USA_ROCI USA_RMW USA_EYE TOKYO_LAT TOKYO_LON TOKYO_GRADE TOKYO_WIND TOKYO_PRES TOKYO_R50_DIR TOKYO_R50_LONG TOKYO_R50_SHORT TOKYO_R30_DIR TOKYO_R30_LONG TOKYO_R30_SHORT TOKYO_LAND CMA_LAT CMA_LON CMA_CAT CMA_WIND CMA_PRES HKO_LAT HKO_LON HKO_CAT HKO_WIND HKO_PRES NEWDELHI_LAT NEWDELHI_LON NEWDELHI_GRADE NEWDELHI_WIND NEWDELHI_PRES NEWDELHI_CI NEWDELHI_DP NEWDELHI_POCI REUNION_LAT REUNION_LON REUNION_TYPE REUNION_WIND REUNION_PRES REUNION_TNUM REUNION_CI REUNION_RMW REUNION_R34_NE REUNION_R34_SE REUNION_R34_SW REUNION_R34_NW REUNION_R50_NE REUNION_R50_SE REUNION_R50_SW REUNION_R50_NW REUNION_R64_NE REUNION_R64_SE REUNION_R64_SW REUNION_R64_NW BOM_LAT BOM_LON BOM_TYPE BOM_WIND BOM_PRES BOM_TNUM BOM_CI BOM_RMW BOM_R34_NE BOM_R34_SE BOM_R34_SW BOM_R34_NW BOM_R50_NE BOM_R50_SE BOM_R50_SW BOM_R50_NW BOM_R64_NE BOM_R64_SE BOM_R64_SW BOM_R64_NW BOM_ROCI BOM_POCI BOM_EYE BOM_POS_METHOD BOM_PRES_METHOD NADI_LAT NADI_LON NADI_CAT NADI_WIND NADI_PRES WELLINGTON_LAT WELLINGTON_LON WELLINGTON_WIND WELLINGTON_PRES DS824_LAT DS824_LON DS824_STAGE DS824_WIND DS824_PRES TD9636_LAT TD9636_LON TD9636_STAGE TD9636_WIND TD9636_PRES TD9635_LAT TD9635_LON TD9635_WIND TD9635_PRES TD9635_ROCI NEUMANN_LAT NEUMANN_LON NEUMANN_CLASS NEUMANN_WIND NEUMANN_PRES MLC_LAT MLC_LON MLC_CLASS MLC_WIND MLC_PRES USA_GUST BOM_GUST BOM_GUST_PER REUNION_GUST REUNION_GUST_PER USA_SEAHGT USA_SEARAD_NE USA_SEARAD_SE USA_SEARAD_SW USA_SEARAD_NW STORM_SPEED STORM_DIR
1996232N21170 1996 69 WP MM PIPER 1996-08-19 00:00:00 NR 20.6000 169.600 main 3168 3168 O_____________ jtwc_wp WP201996 20.6000 169.600 15 -1 15 291
1996232N21170 1996 69 WP MM PIPER 1996-08-19 03:00:00 NR 20.8605 168.863 main 3180 3093 P_____________ WP201996 20.8605 168.863 15 -1 15 293
1996232N21170 1996 69 WP MM PIPER 1996-08-19 06:00:00 NR 21.2000 168.100 main 3093 3000 O_____________ jtwc_wp WP201996 21.2000 168.100 15 -1 17 299
1996232N21170 1996 69 WP MM PIPER 1996-08-19 09:00:00 NR 21.6698 167.300 main 2994 2894 P_____________ WP201996 21.6698 167.300 17 -1 18 304
1996232N21170 1996 69 WP MM PIPER 1996-08-19 12:00:00 NR 22.2000 166.500 main 2894 2803 O_____________ jtwc_wp WP201996 22.2000 166.500 20 -1 18 305
1996232N21170 1996 69 WP MM PIPER 1996-08-19 15:00:00 NR 22.6843 165.756 main 2803 2704 P_____________ WP201996 22.6843 165.756 20 -1 17 306
1996232N21170 1996 69 WP MM PIPER 1996-08-19 18:00:00 NR 23.2000 165.000 main 2704 2605 O_____________ jtwc_wp WP201996 23.2000 165.000 20 -1 18 307
1996232N21170 1996 69 WP MM PIPER 1996-08-19 21:00:00 NR 23.7774 164.157 main 2599 2485 P_____________ WP201996 23.7774 164.157 20 -1 20 308
1996232N21170 1996 69 WP MM PIPER 1996-08-20 00:00:00 NR 24.4000 163.300 main 2485 2381 O_____________ jtwc_wp WP201996 24.4000 163.300 20 -1 20 310
1996232N21170 1996 69 WP MM PIPER 1996-08-20 03:00:00 NR 25.0572 162.477 main 2374 2270 P_____________ WP201996 25.0572 162.477 20 -1 20 312
1996232N21170 1996 69 WP MM PIPER 1996-08-20 06:00:00 NR 25.7000 161.700 main 2270 2181 O_____________ jtwc_wp WP201996 25.7000 161.700 20 -1 18 312
1996232N21170 1996 69 WP MM PIPER 1996-08-20 09:00:00 NR 26.2644 160.984 main 2175 2086 P_____________ WP201996 26.2644 160.984 20 -1 17 311
1996232N21170 1996 69 WP MM PIPER 1996-08-20 12:00:00 NR 26.8000 160.300 main 2086 1991 O_____________ jtwc_wp WP201996 26.8000 160.300 20 -1 17 313
1996232N21170 1996 69 WP MM PIPER 1996-08-20 15:00:00 NR 27.4098 159.586 main 1991 1903 P_____________ WP201996 27.4098 159.586 20 -1 17 312
1996232N21170 1996 69 WP MM PIPER 1996-08-20 18:00:00 NR 27.9000 158.900 main 1903 1842 O_____________ jtwc_wp WP201996 27.9000 158.900 20 -1 14 302
1996232N21170 1996 69 WP MM PIPER 1996-08-20 21:00:00 NR 28.1474 158.247 main 1833 1786 P_____________ WP201996 28.1474 158.247 20 -1 11 286
1996232N21170 1996 69 WP MM PIPER 1996-08-21 00:00:00 NR 28.2000 157.700 main 1786 1753 O_____________ jtwc_wp WP201996 28.2000 157.700 20 -1 9 271
1996232N21170 1996 69 WP MM PIPER 1996-08-21 03:00:00 NR 28.1598 157.275 main 1753 1740 P_____________ WP201996 28.1598 157.275 20 -1 6 252
1996232N21170 1996 69 WP MM PIPER 1996-08-21 06:00:00 NR 28.0000 157.000 main 1740 1732 O_____________ jtwc_wp WP201996 28.0000 157.000 20 -1 5 227
1996232N21170 1996 69 WP MM PIPER 1996-08-21 09:00:00 NR 27.7873 156.825 main 1737 1737 P_____________ WP201996 27.7873 156.825 20 -1 5 200
1996232N21170 1996 69 WP MM PIPER 1996-08-21 12:00:00 NR 27.5000 156.800 main 1756 1756 O_____________ jtwc_wp WP201996 27.5000 156.800 20 -1 7 176
1996232N21170 1996 69 WP MM PIPER 1996-08-21 15:00:00 NR 27.1198 156.868 main 1790 1790 P_____________ WP201996 27.1198 156.868 20 -1 8 159
1996232N21170 1996 69 WP MM PIPER 1996-08-21 18:00:00 NR 26.8000 157.100 main 1826 1826 O_____________ jtwc_wp WP201996 26.8000 157.100 20 -1 7 128
1996232N21170 1996 69 WP MM PIPER 1996-08-21 21:00:00 NR 26.6753 157.513 main 1864 1864 P_____________ WP201996 26.6753 157.513 22 -1 8 97
1996232N21170 1996 69 WP MM PIPER 1996-08-22 00:00:00 NR 26.7000 158.000 main 1904 1904 O_____________ jtwc_wp WP201996 26.7000 158.000 25 -1 8 81
1996232N21170 1996 69 WP MM PIPER 1996-08-22 03:00:00 NR 26.8049 158.415 main 1930 1930 P_____________ WP201996 26.8049 158.415 25 -1 8 67
1996232N21170 1996 69 WP MM PIPER 1996-08-22 06:00:00 NR 27.0000 158.800 main 1950 1950 O_____________ jtwc_wp WP201996 27.0000 158.800 25 -1 8 58
1996232N21170 1996 69 WP MM PIPER 1996-08-22 09:00:00 NR 27.2275 159.173 main 1970 1964 P_____________ WP201996 27.2275 159.173 25 -1 8 51
1996232N21170 1996 69 WP MM PIPER 1996-08-22 12:00:00 NR 27.5000 159.500 main 1977 1971 O_____________ jtwc_wp WP201996 27.5000 159.500 25 -1 8 43
1996232N21170 1996 69 WP MM PIPER 1996-08-22 15:00:00 NR 27.7924 159.773 main 1985 1985 P_____________ WP201996 27.7924 159.773 25 -1 6 59
1996232N21170 1996 69 WP MM PIPER 1996-08-22 18:00:00 TS 27.8143 160.086 1006 tokyo main 2010 2007 OOOO__________ jtwc_wp WP201996 28.1000 160.000 25 -1 27.3000 160.800 2 1006 0 0 0 27.0000 160.000 0 19 1006 28.0000 159.800 TD 25 1005 7 57
1996232N21170 1996 69 WP MM PIPER 1996-08-22 21:00:00 TS 28.1516 160.388 main 2013 2008 PPPP__________ WP201996 28.3850 160.215 27 -1 28.0104 161.236 2 1005 0 0 27.5801 160.162 0 21 1005 28.3977 160.112 TD 25 1005 9 32
1996232N21170 1996 69 WP MM PIPER 1996-08-23 00:00:00 TS 28.6077 160.654 1004 tokyo main 2017 2000 OOOO__________ jtwc_wp WP201996 28.7000 160.400 30 -1 28.7000 161.600 2 1004 0 0 0 28.2000 160.300 1 23 1004 28.8000 160.400 TD 25 1005 11 23
1996232N21170 1996 69 WP MM PIPER 1996-08-23 03:00:00 TS 29.1274 160.859 main 2008 1989 PPPP__________ WP201996 29.0850 160.572 32 -1 29.3448 161.825 2 1003 0 0 28.8724 160.400 1 23 1003 29.2075 160.638 TD 27 1002 11 15
1996232N21170 1996 69 WP MM PIPER 1996-08-23 06:00:00 TS 29.6250 160.975 1002 tokyo main 1993 1979 OOOO__________ jtwc_wp WP201996 29.5000 160.700 35 0 29.9000 161.900 2 1002 0 0 0 29.5000 160.500 1 23 1002 29.6000 160.800 TD 30 1000 9 11
1996232N21170 1996 69 WP MM PIPER 1996-08-23 09:00:00 TS 30.0455 161.072 main 1983 1959 PPPP__________ WP201996 29.9149 160.802 35 0 30.3371 161.905 2 1001 0 0 29.9725 160.680 1 26 1001 29.9574 160.902 TD 30 1000 8 5
1996232N21170 1996 69 WP MM PIPER 1996-08-23 12:00:00 TS 30.4250 161.050 35 1000 tokyo main 1959 1910 OOOO__________ jtwc_wp WP201996 30.3000 160.800 35 0 30.7000 161.700 3 35 1000 0 9 70 70 0 30.4000 160.800 1 29 1000 30.3000 160.900 TD 30 1000 8 346
1996232N21170 1996 69 WP MM PIPER 1996-08-23 15:00:00 TS 30.8301 160.849 main 1906 1858 PPPP__________ WP201996 30.6226 160.638 37 0 31.0807 161.188 3 35 1000 0 9 70 70 30.9524 160.768 1 29 1000 30.6649 160.803 TD 30 1000 9 330
1996232N21170 1996 69 WP MM PIPER 1996-08-23 18:00:00 TS 31.1750 160.550 35 1000 tokyo main 1858 1825 OOOO__________ jtwc_wp WP201996 30.9000 160.400 40 0 31.4000 160.600 3 35 1000 0 9 70 70 0 31.4000 160.600 1 29 1000 31.0000 160.600 TD 30 1000 8 319
1996232N21170 1996 69 WP MM PIPER 1996-08-23 21:00:00 TS 31.4012 160.259 main 1825 1792 PPPP__________ WP201996 31.1500 160.200 42 0 31.6372 160.197 3 35 1000 0 9 70 70 31.5451 160.322 1 31 999 31.2726 160.315 TD 30 1000 6 309
1996232N21170 1996 69 WP MM PIPER 1996-08-24 00:00:00 TS 31.5750 159.975 35 1000 tokyo main 1792 1760 OOOO__________ jtwc_wp WP201996 31.4000 160.000 45 0 31.8000 159.900 3 35 1000 0 9 70 70 0 31.6000 160.000 2 34 998 31.5000 160.000 TD 30 1000 6 309
1996232N21170 1996 69 WP MM PIPER 1996-08-24 03:00:00 TS 31.7712 159.724 main 1760 1731 PPPP__________ WP201996 31.6925 159.785 47 0 31.8999 159.655 3 35 1000 0 9 70 70 31.7925 159.728 2 34 998 31.7000 159.727 TD 32 999 6 316
1996232N21170 1996 69 WP MM PIPER 1996-08-24 06:00:00 TS 31.9750 159.525 35 1000 tokyo main 1731 1707 OOOO__________ jtwc_wp WP201996 32.0000 159.600 50 0 32.0000 159.500 3 35 1000 0 9 70 70 0 32.0000 159.500 2 34 998 31.9000 159.500 TS 35 998 5 325
1996232N21170 1996 69 WP MM PIPER 1996-08-24 09:00:00 TS 32.1793 159.392 main 1707 1683 PPPP__________ WP201996 32.2999 159.492 52 0 32.1699 159.427 3 35 999 0 9 70 70 32.1275 159.320 2 34 998 32.1199 159.327 TS 35 998 5 337
1996232N21170 1996 69 WP MM PIPER 1996-08-24 12:00:00 TS 32.4250 159.300 35 998 tokyo main 1683 1649 OOOO__________ jtwc_wp WP201996 32.6000 159.400 55 0 32.4000 159.400 3 35 998 0 9 70 70 0 32.3000 159.200 2 34 998 32.4000 159.200 TS 35 998 6 345
1996232N21170 1996 69 WP MM PIPER 1996-08-24 15:00:00 TS 32.7231 159.216 main 1649 1605 PPPP__________ WP201996 32.8700 159.250 57 0 32.6549 159.372 3 35 998 0 9 70 70 32.5974 159.150 2 34 998 32.7700 159.092 TS 35 998 7 348
1996232N21170 1996 69 WP MM PIPER 1996-08-24 18:00:00 TS 33.1000 159.125 35 998 tokyo main 1605 1561 OOOO__________ jtwc_wp WP201996 33.2000 159.100 60 0 33.0000 159.300 3 35 998 0 9 70 70 0 33.0000 159.100 2 34 998 33.2000 159.000 TS 35 998 9 347
1996232N21170 1996 69 WP MM PIPER 1996-08-24 21:00:00 TS 33.5519 158.989 main 1551 1507 PPPP__________ WP201996 33.6625 159.000 62 0 33.4551 159.108 3 37 997 0 9 75 75 33.4626 158.950 2 36 996 33.6275 158.900 TS 35 998 10 347
1996232N21170 1996 69 WP MM PIPER 1996-08-25 00:00:00 TS 34.0750 158.850 40 996 tokyo main 1493 1440 OOOO__________ jtwc_wp WP201996 34.2000 158.900 65 1 34.0000 158.900 3 40 996 0 9 80 80 0 34.0000 158.800 2 38 995 34.1000 158.800 TS 35 998 11 349
1996232N21170 1996 69 WP MM PIPER 1996-08-25 03:00:00 TS 34.6369 158.741 main 1440 1382 PPPP__________ WP201996 34.7201 158.743 65 1 34.6000 158.777 3 40 996 0 9 80 80 34.5999 158.749 2 38 995 34.6275 158.693 TS 35 998 12 352
1996232N21170 1996 69 WP MM PIPER 1996-08-25 06:00:00 TS 35.2250 158.650 40 996 tokyo main 1382 1329 OOOO__________ jtwc_wp WP201996 35.3000 158.600 65 1 35.2000 158.700 3 40 996 0 9 80 80 0 35.2000 158.700 2 38 995 35.2000 158.600 TS 35 998 11 352
1996232N21170 1996 69 WP MM PIPER 1996-08-25 09:00:00 TS 35.7644 158.553 main 1320 1268 PPPP__________ WP201996 35.9475 158.506 62 0 35.6775 158.635 3 40 996 0 9 75 75 35.6551 158.536 2 38 995 35.7775 158.535 TS 35 998 12 354
1996232N21170 1996 69 WP MM PIPER 1996-08-25 12:00:00 TS 36.3750 158.500 40 996 tokyo main 1259 1194 OOOO__________ jtwc_wp WP201996 36.7000 158.500 60 0 36.2000 158.600 3 40 996 0 9 70 70 0 36.2000 158.400 2 38 995 36.4000 158.500 TS 35 998 14 358
1996232N21170 1996 69 WP MM PIPER 1996-08-25 15:00:00 TS 37.1125 158.513 main 1194 1118 PPPP__________ WP201996 37.5400 158.598 60 0 36.8526 158.578 3 40 996 0 9 70 70 37.0250 158.405 2 38 995 37.0325 158.471 TS 35 998 16 3
1996232N21170 1996 69 WP MM PIPER 1996-08-25 18:00:00 TS 38.0133 158.607 40 996 tokyo main 1118 1045 OOOO__________ jtwc_wp WP201996 38.5000 158.800 60 0 37.7000 158.600 3 40 996 0 9 70 70 0 38.0000 158.500 2 38 995 37.8000 158.500 TS 35 998 19 5
1996232N21170 1996 69 WP MM PIPER 1996-08-25 21:00:00 TS 39.0077 158.732 main 1036 953 PPPP__________ WP201996 39.5175 159.057 60 0 38.7223 158.622 3 37 998 0 9 70 70 38.8947 158.572 2 36 996 38.7851 158.621 TS 32 999 23 8
1996232N21170 1996 69 WP MM PIPER 1996-08-26 00:00:00 TS 40.2455 159.018 35 1000 tokyo main 953 874 OOOO__________ jtwc_wp WP201996 40.7000 159.400 60 0 40.0000 158.800 3 35 1000 0 9 70 70 0 40.0000 158.800 2 34 998 39.9000 158.800 TD 30 1000 28 12
1996232N21170 1996 69 WP MM PIPER 1996-08-26 03:00:00 TS 41.7655 159.534 main 868 814 PPP___________ WP201996 42.0224 159.788 57 0 41.5310 159.255 3 1002 0 9 41.4863 159.304 2 28 1001 TD 33 15
1996232N21170 1996 69 WP MM PIPER 1996-08-26 06:00:00 TS 43.4667 160.183 1004 tokyo main 808 658 OOO___________ jtwc_wp WP201996 43.6000 160.300 55 0 43.2000 159.900 2 1004 0 0 0 43.2000 160.000 1 23 1004 38 16
1996232N21170 1996 69 WP MM PIPER 1996-08-26 09:00:00 NR 45.4299 160.960 main 653 524 P_____________ WP201996 45.4299 160.960 55 0 2 0 0 1 42 16
1996232N21170 1996 69 WP MM PIPER 1996-08-26 12:00:00 NR 47.5000 161.800 main 523 409 O_____________ jtwc_wp WP201996 47.5000 161.800 55 0 45 16
1996232N21170 1996 69 WP MM PIPER 1996-08-26 15:00:00 NR 49.7170 162.820 main 402 288 P_____________ WP201996 49.7170 162.820 52 0 47 18
1996232N21170 1996 69 WP MM PIPER 1996-08-26 18:00:00 NR 52.0000 164.000 main 289 O_____________ jtwc_wp WP201996 52.0000 164.000 50 0 48 18

Digital Typhoon Data and Search

About IBTrACS Database

This database is a web-friendly format of International Best Track Archive for Climate Stewardship (IBTrACS), a global best track data archive curated by NOAA dating back to 1842.

Updated: 2021-12-03